sensor_id;sensor_type;location;lat;lon;timestamp;pressure;altitude;pressure_sealevel;temperature;humidity
35023;BME280;21214;44.912;8.204;2024-03-02T00:00:10;98770.13;;;9.08;100.00
35023;BME280;21214;44.912;8.204;2024-03-02T00:02:43;98762.63;;;9.13;100.00
35023;BME280;21214;44.912;8.204;2024-03-02T00:05:14;98766.75;;;9.15;100.00
35023;BME280;21214;44.912;8.204;2024-03-02T00:07:41;98772.00;;;9.15;100.00
35023;BME280;21214;44.912;8.204;2024-03-02T00:10:09;98772.00;;;9.15;100.00
35023;BME280;21214;44.912;8.204;2024-03-02T00:12:38;98771.03;;;9.16;100.00
35023;BME280;21214;44.912;8.204;2024-03-02T00:18:11;98779.06;;;9.15;100.00
35023;BME280;21214;44.912;8.204;2024-03-02T00:20:41;98774.63;;;9.15;100.00
35023;BME280;21214;44.912;8.204;2024-03-02T00:23:07;98775.31;;;9.17;100.00
35023;BME280;21214;44.912;8.204;2024-03-02T00:25:38;98777.63;;;9.20;100.00
35023;BME280;21214;44.912;8.204;2024-03-02T00:28:05;98787.50;;;9.18;100.00
35023;BME280;21214;44.912;8.204;2024-03-02T00:33:16;98784.34;;;9.15;100.00
35023;BME280;21214;44.912;8.204;2024-03-02T00:35:44;98783.38;;;9.16;100.00
35023;BME280;21214;44.912;8.204;2024-03-02T00:38:10;98785.84;;;9.17;100.00
35023;BME280;21214;44.912;8.204;2024-03-02T00:40:35;98788.47;;;9.17;100.00
35023;BME280;21214;44.912;8.204;2024-03-02T00:43:01;98792.56;;;9.12;100.00
35023;BME280;21214;44.912;8.204;2024-03-02T00:45:28;98796.31;;;9.09;100.00
35023;BME280;21214;44.912;8.204;2024-03-02T00:47:54;98784.81;;;9.10;100.00
35023;BME280;21214;44.912;8.204;2024-03-02T00:50:19;98793.16;;;9.06;100.00
35023;BME280;21214;44.912;8.204;2024-03-02T00:52:46;98793.44;;;9.02;100.00
35023;BME280;21214;44.912;8.204;2024-03-02T00:55:14;98798.72;;;9.02;100.00
35023;BME280;21214;44.912;8.204;2024-03-02T00:57:39;98795.94;;;9.04;100.00
35023;BME280;21214;44.912;8.204;2024-03-02T01:00:06;98788.41;;;9.09;100.00
35023;BME280;21214;44.912;8.204;2024-03-02T01:02:35;98789.22;;;9.10;100.00
35023;BME280;21214;44.912;8.204;2024-03-02T01:05:00;98793.38;;;9.12;100.00
35023;BME280;21214;44.912;8.204;2024-03-02T01:07:26;98781.06;;;9.13;100.00
35023;BME280;21214;44.912;8.204;2024-03-02T01:09:51;98791.56;;;9.13;100.00
35023;BME280;21214;44.912;8.204;2024-03-02T01:12:17;98784.47;;;9.13;100.00
35023;BME280;21214;44.912;8.204;2024-03-02T01:14:42;98787.13;;;9.13;100.00
35023;BME280;21214;44.912;8.204;2024-03-02T01:17:08;98784.81;;;9.10;100.00
35023;BME280;21214;44.912;8.204;2024-03-02T01:19:33;98780.81;;;9.06;100.00
35023;BME280;21214;44.912;8.204;2024-03-02T01:21:59;98786.69;;;9.00;100.00
35023;BME280;21214;44.912;8.204;2024-03-02T01:24:24;98796.84;;;8.95;100.00
35023;BME280;21214;44.912;8.204;2024-03-02T01:26:50;98797.44;;;8.89;100.00
35023;BME280;21214;44.912;8.204;2024-03-02T01:29:16;98796.75;;;8.87;100.00
35023;BME280;21214;44.912;8.204;2024-03-02T01:31:41;98797.22;;;8.82;100.00
35023;BME280;21214;44.912;8.204;2024-03-02T01:34:08;98798.34;;;8.80;100.00
35023;BME280;21214;44.912;8.204;2024-03-02T01:36:33;98793.06;;;8.80;100.00
35023;BME280;21214;44.912;8.204;2024-03-02T01:38:59;98797.81;;;8.76;100.00
35023;BME280;21214;44.912;8.204;2024-03-02T01:41:25;98797.28;;;8.73;100.00
35023;BME280;21214;44.912;8.204;2024-03-02T01:43:50;98791.34;;;8.71;100.00
35023;BME280;21214;44.912;8.204;2024-03-02T01:46:16;98794.81;;;8.71;100.00
35023;BME280;21214;44.912;8.204;2024-03-02T01:48:41;98787.06;;;8.70;100.00
35023;BME280;21214;44.912;8.204;2024-03-02T01:51:08;98789.84;;;8.68;100.00
35023;BME280;21214;44.912;8.204;2024-03-02T01:53:34;98788.72;;;8.71;100.00
35023;BME280;21214;44.912;8.204;2024-03-02T01:56:00;98786.09;;;8.71;100.00
35023;BME280;21214;44.912;8.204;2024-03-02T01:58:27;98785.25;;;8.70;100.00
35023;BME280;21214;44.912;8.204;2024-03-02T02:00:53;98786.75;;;8.73;100.00
35023;BME280;21214;44.912;8.204;2024-03-02T02:03:18;98786.75;;;8.73;100.00
35023;BME280;21214;44.912;8.204;2024-03-02T02:05:44;98777.88;;;8.74;100.00
35023;BME280;21214;44.912;8.204;2024-03-02T02:08:11;98777.06;;;8.73;100.00
35023;BME280;21214;44.912;8.204;2024-03-02T02:10:36;98783.16;;;8.74;100.00
35023;BME280;21214;44.912;8.204;2024-03-02T02:13:02;98786.63;;;8.74;100.00
35023;BME280;21214;44.912;8.204;2024-03-02T02:15:31;98791.41;;;8.79;100.00
35023;BME280;21214;44.912;8.204;2024-03-02T02:17:58;98780.59;;;8.82;100.00
35023;BME280;21214;44.912;8.204;2024-03-02T02:20:24;98781.94;;;8.86;100.00
35023;BME280;21214;44.912;8.204;2024-03-02T02:23:00;98780.66;;;8.90;100.00
35023;BME280;21214;44.912;8.204;2024-03-02T02:25:27;98772.78;;;8.90;100.00
35023;BME280;21214;44.912;8.204;2024-03-02T02:27:52;98767.00;;;8.86;100.00
35023;BME280;21214;44.912;8.204;2024-03-02T02:30:22;98770.13;;;8.90;100.00
35023;BME280;21214;44.912;8.204;2024-03-02T02:32:48;98756.19;;;8.89;100.00
35023;BME280;21214;44.912;8.204;2024-03-02T02:35:15;98757.31;;;8.87;100.00
35023;BME280;21214;44.912;8.204;2024-03-02T02:37:41;98761.88;;;8.85;100.00
35023;BME280;21214;44.912;8.204;2024-03-02T02:40:07;98754.97;;;8.84;100.00
35023;BME280;21214;44.912;8.204;2024-03-02T02:42:32;98762.84;;;8.84;100.00
35023;BME280;21214;44.912;8.204;2024-03-02T02:44:59;98755.63;;;8.86;100.00
35023;BME280;21214;44.912;8.204;2024-03-02T02:47:25;98754.53;;;8.88;100.00
35023;BME280;21214;44.912;8.204;2024-03-02T02:49:51;98749.25;;;8.88;100.00
35023;BME280;21214;44.912;8.204;2024-03-02T02:52:17;98756.97;;;8.90;100.00
35023;BME280;21214;44.912;8.204;2024-03-02T02:54:43;98745.66;;;8.89;100.00
35023;BME280;21214;44.912;8.204;2024-03-02T02:57:09;98750.09;;;8.89;100.00
35023;BME280;21214;44.912;8.204;2024-03-02T02:59:35;98748.44;;;8.88;100.00
35023;BME280;21214;44.912;8.204;2024-03-02T03:02:01;98746.47;;;8.90;100.00
35023;BME280;21214;44.912;8.204;2024-03-02T03:04:26;98745.19;;;8.94;100.00
35023;BME280;21214;44.912;8.204;2024-03-02T03:06:52;98742.25;;;8.97;100.00
35023;BME280;21214;44.912;8.204;2024-03-02T03:09:17;98739.97;;;9.02;100.00
35023;BME280;21214;44.912;8.204;2024-03-02T03:11:43;98747.72;;;9.03;100.00
35023;BME280;21214;44.912;8.204;2024-03-02T03:14:08;98741.34;;;9.06;100.00
35023;BME280;21214;44.912;8.204;2024-03-02T03:16:34;98742.00;;;9.08;100.00
35023;BME280;21214;44.912;8.204;2024-03-02T03:18:59;98740.06;;;9.10;100.00
35023;BME280;21214;44.912;8.204;2024-03-02T03:21:25;98746.44;;;9.08;100.00
35023;BME280;21214;44.912;8.204;2024-03-02T03:23:50;98755.47;;;9.05;100.00
35023;BME280;21214;44.912;8.204;2024-03-02T03:26:16;98752.16;;;9.03;100.00
35023;BME280;21214;44.912;8.204;2024-03-02T03:28:41;98747.22;;;9.00;100.00
35023;BME280;21214;44.912;8.204;2024-03-02T03:31:07;98749.50;;;8.95;100.00
35023;BME280;21214;44.912;8.204;2024-03-02T03:33:32;98750.47;;;8.94;100.00
35023;BME280;21214;44.912;8.204;2024-03-02T03:35:58;98753.25;;;8.92;100.00
35023;BME280;21214;44.912;8.204;2024-03-02T03:38:23;98747.84;;;8.94;100.00
35023;BME280;21214;44.912;8.204;2024-03-02T03:40:49;98753.59;;;8.97;100.00
35023;BME280;21214;44.912;8.204;2024-03-02T03:43:15;98752.63;;;8.98;100.00
35023;BME280;21214;44.912;8.204;2024-03-02T03:45:41;98752.50;;;9.00;100.00
35023;BME280;21214;44.912;8.204;2024-03-02T03:48:07;98752.50;;;9.00;100.00
35023;BME280;21214;44.912;8.204;2024-03-02T03:50:32;98752.50;;;9.00;100.00
35023;BME280;21214;44.912;8.204;2024-03-02T03:52:57;98757.44;;;9.03;100.00
35023;BME280;21214;44.912;8.204;2024-03-02T03:55:23;98759.09;;;9.04;100.00
35023;BME280;21214;44.912;8.204;2024-03-02T03:57:48;98767.66;;;9.06;100.00
35023;BME280;21214;44.912;8.204;2024-03-02T04:00:14;98761.25;;;9.09;100.00
35023;BME280;21214;44.912;8.204;2024-03-02T04:02:40;98763.75;;;9.10;100.00
35023;BME280;21214;44.912;8.204;2024-03-02T04:05:06;98758.34;;;9.12;100.00
35023;BME280;21214;44.912;8.204;2024-03-02T04:07:35;98756.53;;;9.12;100.00
35023;BME280;21214;44.912;8.204;2024-03-02T04:10:06;98754.56;;;9.14;100.00
35023;BME280;21214;44.912;8.204;2024-03-02T04:12:34;98752.75;;;9.15;100.00
35023;BME280;21214;44.912;8.204;2024-03-02T04:15:00;98761.47;;;9.15;100.00
35023;BME280;21214;44.912;8.204;2024-03-02T04:17:27;98760.50;;;9.16;100.00
35023;BME280;21214;44.912;8.204;2024-03-02T04:19:52;98760.34;;;9.18;100.00
35023;BME280;21214;44.912;8.204;2024-03-02T04:22:18;98764.78;;;9.17;100.00
35023;BME280;21214;44.912;8.204;2024-03-02T04:24:43;98768.06;;;9.19;100.00
35023;BME280;21214;44.912;8.204;2024-03-02T04:27:12;98761.47;;;9.15;100.00
35023;BME280;21214;44.912;8.204;2024-03-02T04:29:37;98769.22;;;9.17;100.00
35023;BME280;21214;44.912;8.204;2024-03-02T04:32:03;98765.63;;;9.18;100.00
35023;BME280;21214;44.912;8.204;2024-03-02T04:34:28;98773.94;;;9.13;100.00
35023;BME280;21214;44.912;8.204;2024-03-02T04:36:53;98770.66;;;9.11;100.00
35023;BME280;21214;44.912;8.204;2024-03-02T04:39:19;98765.63;;;9.18;100.00
35023;BME280;21214;44.912;8.204;2024-03-02T04:41:44;98775.00;;;9.20;100.00
35023;BME280;21214;44.912;8.204;2024-03-02T04:44:10;98768.41;;;9.16;100.00
35023;BME280;21214;44.912;8.204;2024-03-02T04:46:36;98774.16;;;9.20;100.00
35023;BME280;21214;44.912;8.204;2024-03-02T04:49:02;98771.72;;;9.18;100.00
35023;BME280;21214;44.912;8.204;2024-03-02T04:51:27;98765.16;;;9.22;100.00
35023;BME280;21214;44.912;8.204;2024-03-02T04:53:52;98769.44;;;9.23;100.00
35023;BME280;21214;44.912;8.204;2024-03-02T04:56:18;98759.22;;;9.20;100.00
35023;BME280;21214;44.912;8.204;2024-03-02T04:59:02;98763.97;;;9.17;100.00
35023;BME280;21214;44.912;8.204;2024-03-02T05:01:27;98775.59;;;9.14;100.00
35023;BME280;21214;44.912;8.204;2024-03-02T05:03:53;98772.31;;;9.12;100.00
35023;BME280;21214;44.912;8.204;2024-03-02T05:06:18;98773.16;;;9.13;100.00
35023;BME280;21214;44.912;8.204;2024-03-02T05:08:44;98780.22;;;9.12;100.00
35023;BME280;21214;44.912;8.204;2024-03-02T05:11:10;98774.13;;;9.12;100.00
35023;BME280;21214;44.912;8.204;2024-03-02T05:14:07;98785.63;;;9.11;100.00
35023;BME280;21214;44.912;8.204;2024-03-02T05:16:36;98786.47;;;9.11;100.00
35023;BME280;21214;44.912;8.204;2024-03-02T05:19:05;98791.72;;;9.11;100.00
35023;BME280;21214;44.912;8.204;2024-03-02T05:21:34;98799.91;;;9.08;100.00
35023;BME280;21214;44.912;8.204;2024-03-02T05:23:59;98801.50;;;9.01;100.00
35023;BME280;21214;44.912;8.204;2024-03-02T05:26:25;98799.25;;;9.06;100.00
35023;BME280;21214;44.912;8.204;2024-03-02T05:28:51;98805.84;;;9.10;100.00
35023;BME280;21214;44.912;8.204;2024-03-02T05:31:17;98801.06;;;9.06;100.00
35023;BME280;21214;44.912;8.204;2024-03-02T05:33:43;98808.94;;;9.06;100.00
35023;BME280;21214;44.912;8.204;2024-03-02T05:36:09;98814.34;;;9.04;100.00
35023;BME280;21214;44.912;8.204;2024-03-02T05:38:35;98823.91;;;9.05;100.00
35023;BME280;21214;44.912;8.204;2024-03-02T05:41:00;98823.06;;;9.04;100.00
35023;BME280;21214;44.912;8.204;2024-03-02T05:43:26;98821.41;;;9.03;100.00
35023;BME280;21214;44.912;8.204;2024-03-02T05:45:51;98819.34;;;9.07;100.00
35023;BME280;21214;44.912;8.204;2024-03-02T05:48:17;98820.00;;;9.09;100.00
35023;BME280;21214;44.912;8.204;2024-03-02T05:50:42;98827.75;;;9.11;100.00
35023;BME280;21214;44.912;8.204;2024-03-02T05:53:08;98826.22;;;9.08;100.00
35023;BME280;21214;44.912;8.204;2024-03-02T05:55:34;98824.59;;;9.07;100.00
35023;BME280;21214;44.912;8.204;2024-03-02T05:57:59;98828.19;;;9.06;100.00
35023;BME280;21214;44.912;8.204;2024-03-02T06:00:44;98837.34;;;9.02;100.00
35023;BME280;21214;44.912;8.204;2024-03-02T06:03:10;98838.03;;;9.04;100.00
35023;BME280;21214;44.912;8.204;2024-03-02T06:05:36;98837.75;;;9.07;100.00
35023;BME280;21214;44.912;8.204;2024-03-02T06:08:01;98836.75;;;9.08;100.00
35023;BME280;21214;44.912;8.204;2024-03-02T06:10:27;98831.19;;;9.11;100.00
35023;BME280;21214;44.912;8.204;2024-03-02T06:12:53;98837.44;;;9.10;100.00
35023;BME280;21214;44.912;8.204;2024-03-02T06:15:18;98835.50;;;9.12;100.00
35023;BME280;21214;44.912;8.204;2024-03-02T06:17:44;98843.22;;;9.14;100.00
35023;BME280;21214;44.912;8.204;2024-03-02T06:20:09;98841.34;;;9.06;100.00
35023;BME280;21214;44.912;8.204;2024-03-02T06:22:35;98844.38;;;9.11;100.00
35023;BME280;21214;44.912;8.204;2024-03-02T06:25:00;98847.66;;;9.13;100.00
35023;BME280;21214;44.912;8.204;2024-03-02T06:27:26;98853.75;;;9.14;100.00
35023;BME280;21214;44.912;8.204;2024-03-02T06:29:52;98859.84;;;9.14;100.00
35023;BME280;21214;44.912;8.204;2024-03-02T06:32:18;98856.22;;;9.15;100.00
35023;BME280;21214;44.912;8.204;2024-03-02T06:34:44;98862.78;;;9.11;100.00
35023;BME280;21214;44.912;8.204;2024-03-02T06:37:09;98861.50;;;9.15;100.00
35023;BME280;21214;44.912;8.204;2024-03-02T06:39:35;98865.66;;;9.18;100.00
35023;BME280;21214;44.912;8.204;2024-03-02T06:42:01;98869.09;;;9.18;100.00
35023;BME280;21214;44.912;8.204;2024-03-02T06:44:26;98875.03;;;9.20;100.00
35023;BME280;21214;44.912;8.204;2024-03-02T06:46:52;98869.94;;;9.19;100.00
35023;BME280;21214;44.912;8.204;2024-03-02T06:49:17;98866.16;;;9.21;100.00
35023;BME280;21214;44.912;8.204;2024-03-02T06:51:44;98878.63;;;9.19;100.00
35023;BME280;21214;44.912;8.204;2024-03-02T06:54:11;98883.25;;;9.17;100.00
35023;BME280;21214;44.912;8.204;2024-03-02T06:56:36;98878.94;;;9.16;100.00
35023;BME280;21214;44.912;8.204;2024-03-02T06:59:04;98886.84;;;9.16;100.00
35023;BME280;21214;44.912;8.204;2024-03-02T07:01:30;98886.16;;;9.14;100.00
35023;BME280;21214;44.912;8.204;2024-03-02T07:03:55;98886.47;;;9.11;100.00
35023;BME280;21214;44.912;8.204;2024-03-02T07:06:20;98890.06;;;9.10;100.00
35023;BME280;21214;44.912;8.204;2024-03-02T07:08:46;98892.84;;;9.09;100.00
35023;BME280;21214;44.912;8.204;2024-03-02T07:11:11;98893.69;;;9.09;100.00
35023;BME280;21214;44.912;8.204;2024-03-02T07:13:37;98889.38;;;9.08;100.00
35023;BME280;21214;44.912;8.204;2024-03-02T07:16:02;98893.69;;;9.09;100.00
35023;BME280;21214;44.912;8.204;2024-03-02T07:18:28;98882.19;;;9.10;100.00
35023;BME280;21214;44.912;8.204;2024-03-02T07:20:53;98877.59;;;9.12;100.00
35023;BME280;21214;44.912;8.204;2024-03-02T07:23:20;98884.22;;;9.16;100.00
35023;BME280;21214;44.912;8.204;2024-03-02T07:25:49;98877.00;;;9.18;100.00
35023;BME280;21214;44.912;8.204;2024-03-02T07:28:15;98877.53;;;9.22;100.00
35023;BME280;21214;44.912;8.204;2024-03-02T07:30:41;98877.06;;;9.26;100.00
35023;BME280;21214;44.912;8.204;2024-03-02T07:33:06;98877.16;;;9.34;100.00
35023;BME280;21214;44.912;8.204;2024-03-02T07:35:32;98871.56;;;9.37;100.00
35023;BME280;21214;44.912;8.204;2024-03-02T07:37:57;98885.41;;;9.39;100.00
35023;BME280;21214;44.912;8.204;2024-03-02T07:40:23;98882.31;;;9.44;100.00
35023;BME280;21214;44.912;8.204;2024-03-02T07:42:49;98893.75;;;9.53;100.00
35023;BME280;21214;44.912;8.204;2024-03-02T07:45:14;98899.06;;;9.61;100.00
35023;BME280;21214;44.912;8.204;2024-03-02T07:47:40;98903.91;;;9.65;100.00
35023;BME280;21214;44.912;8.204;2024-03-02T07:50:06;98901.50;;;9.72;100.00
35023;BME280;21214;44.912;8.204;2024-03-02T07:52:32;98905.41;;;9.68;100.00
35023;BME280;21214;44.912;8.204;2024-03-02T07:54:59;98896.22;;;9.72;100.00
35023;BME280;21214;44.912;8.204;2024-03-02T07:57:25;98902.84;;;9.76;100.00
35023;BME280;21214;44.912;8.204;2024-03-02T07:59:50;98899.53;;;9.74;100.00
35023;BME280;21214;44.912;8.204;2024-03-02T08:02:16;98899.53;;;9.74;100.00
35023;BME280;21214;44.912;8.204;2024-03-02T08:04:41;98905.09;;;9.71;100.00
35023;BME280;21214;44.912;8.204;2024-03-02T08:07:07;98896.72;;;9.75;100.00
35023;BME280;21214;44.912;8.204;2024-03-02T08:09:33;98900.56;;;9.81;100.00
35023;BME280;21214;44.912;8.204;2024-03-02T08:11:59;98903.56;;;9.86;100.00
35023;BME280;21214;44.912;8.204;2024-03-02T08:14:25;98903.78;;;9.93;100.00
35023;BME280;21214;44.912;8.204;2024-03-02T08:16:53;98901.81;;;9.95;100.00
35023;BME280;21214;44.912;8.204;2024-03-02T08:19:19;98912.38;;;9.95;100.00
35023;BME280;21214;44.912;8.204;2024-03-02T08:21:44;98909.56;;;9.96;100.00
35023;BME280;21214;44.912;8.204;2024-03-02T08:24:10;98910.72;;;9.94;100.00
35023;BME280;21214;44.912;8.204;2024-03-02T08:26:35;98917.63;;;9.95;100.00
35023;BME280;21214;44.912;8.204;2024-03-02T08:29:01;98913.19;;;9.95;100.00
35023;BME280;21214;44.912;8.204;2024-03-02T08:31:30;98923.75;;;9.95;100.00
35023;BME280;21214;44.912;8.204;2024-03-02T08:33:55;98924.03;;;9.92;100.00
35023;BME280;21214;44.912;8.204;2024-03-02T08:36:22;98930.13;;;9.93;100.00
35023;BME280;21214;44.912;8.204;2024-03-02T08:38:49;98923.75;;;9.95;100.00
35023;BME280;21214;44.912;8.204;2024-03-02T08:41:15;98939.84;;;9.92;100.00
35023;BME280;21214;44.912;8.204;2024-03-02T08:43:42;98936.22;;;9.93;100.00
35023;BME280;21214;44.912;8.204;2024-03-02T08:46:08;98943.16;;;9.94;100.00
35023;BME280;21214;44.912;8.204;2024-03-02T08:48:34;98940.88;;;9.99;100.00
35023;BME280;21214;44.912;8.204;2024-03-02T08:51:00;98941.41;;;10.03;100.00
35023;BME280;21214;44.912;8.204;2024-03-02T08:53:26;98944.25;;;10.09;100.00
35023;BME280;21214;44.912;8.204;2024-03-02T08:55:51;98950.59;;;10.16;100.00
35023;BME280;21214;44.912;8.204;2024-03-02T08:58:17;98947.34;;;10.22;100.00
35023;BME280;21214;44.912;8.204;2024-03-02T09:00:42;98936.47;;;10.25;100.00
35023;BME280;21214;44.912;8.204;2024-03-02T09:03:08;98945.06;;;10.27;100.00
35023;BME280;21214;44.912;8.204;2024-03-02T09:05:33;98946.41;;;10.32;100.00
35023;BME280;21214;44.912;8.204;2024-03-02T09:08:00;98944.44;;;10.34;100.00
35023;BME280;21214;44.912;8.204;2024-03-02T09:10:26;98937.97;;;10.28;100.00
35023;BME280;21214;44.912;8.204;2024-03-02T09:12:51;98946.41;;;10.32;100.00
35023;BME280;21214;44.912;8.204;2024-03-02T09:15:17;98946.59;;;10.38;100.00
35023;BME280;21214;44.912;8.204;2024-03-02T09:17:43;98948.75;;;10.43;100.00
35023;BME280;21214;44.912;8.204;2024-03-02T09:20:09;98953.41;;;10.49;100.00
35023;BME280;21214;44.912;8.204;2024-03-02T09:22:34;98961.31;;;10.49;100.00
35023;BME280;21214;44.912;8.204;2024-03-02T09:25:00;98953.31;;;10.58;100.00
35023;BME280;21214;44.912;8.204;2024-03-02T09:27:25;98964.06;;;10.65;100.00
35023;BME280;21214;44.912;8.204;2024-03-02T09:29:50;98957.47;;;10.69;100.00
35023;BME280;21214;44.912;8.204;2024-03-02T09:32:16;98960.81;;;10.79;100.00
35023;BME280;21214;44.912;8.204;2024-03-02T09:34:41;98961.88;;;10.60;100.00
35023;BME280;21214;44.912;8.204;2024-03-02T09:37:07;98962.22;;;10.57;100.00
35023;BME280;21214;44.912;8.204;2024-03-02T09:39:33;98954.50;;;10.72;100.00
35023;BME280;21214;44.912;8.204;2024-03-02T09:41:59;98968.72;;;10.71;100.00
35023;BME280;21214;44.912;8.204;2024-03-02T09:44:25;98956.56;;;10.86;100.00
35023;BME280;21214;44.912;8.204;2024-03-02T09:46:52;98955.94;;;10.92;100.00
35023;BME280;21214;44.912;8.204;2024-03-02T09:49:17;98964.88;;;11.07;100.00
35023;BME280;21214;44.912;8.204;2024-03-02T09:51:49;98960.63;;;11.15;100.00
35023;BME280;21214;44.912;8.204;2024-03-02T09:54:21;98964.25;;;11.05;100.00
35023;BME280;21214;44.912;8.204;2024-03-02T09:56:47;98965.84;;;10.98;100.00
35023;BME280;21214;44.912;8.204;2024-03-02T09:59:12;98967.31;;;10.93;100.00
35023;BME280;21214;44.912;8.204;2024-03-02T10:01:55;98964.78;;;10.75;100.00
35023;BME280;21214;44.912;8.204;2024-03-02T10:04:21;98970.63;;;10.61;100.00
35023;BME280;21214;44.912;8.204;2024-03-02T10:06:47;98969.97;;;10.59;100.00
35023;BME280;21214;44.912;8.204;2024-03-02T10:09:26;98966.09;;;10.71;100.00
35023;BME280;21214;44.912;8.204;2024-03-02T10:11:53;98964.44;;;10.78;100.00
35023;BME280;21214;44.912;8.204;2024-03-02T10:14:18;98960.19;;;10.85;100.00
35023;BME280;21214;44.912;8.204;2024-03-02T10:16:44;98964.19;;;10.89;100.00
35023;BME280;21214;44.912;8.204;2024-03-02T10:19:23;98961.53;;;10.89;100.00
35023;BME280;21214;44.912;8.204;2024-03-02T10:21:51;98961.38;;;10.91;100.00
35023;BME280;21214;44.912;8.204;2024-03-02T10:24:18;98960.22;;;10.93;100.00
35023;BME280;21214;44.912;8.204;2024-03-02T10:26:43;98968.16;;;10.93;100.00
35023;BME280;21214;44.912;8.204;2024-03-02T10:29:10;98964.53;;;10.94;100.00
35023;BME280;21214;44.912;8.204;2024-03-02T10:31:39;98961.88;;;10.94;100.00
35023;BME280;21214;44.912;8.204;2024-03-02T10:34:06;98968.97;;;10.94;100.00
35023;BME280;21214;44.912;8.204;2024-03-02T10:36:33;98968.78;;;10.87;100.00
35023;BME280;21214;44.912;8.204;2024-03-02T10:39:04;98966.16;;;10.87;100.00
35023;BME280;21214;44.912;8.204;2024-03-02T10:41:35;98968.78;;;10.87;100.00
35023;BME280;21214;44.912;8.204;2024-03-02T10:44:05;98964.34;;;10.88;100.00
35023;BME280;21214;44.912;8.204;2024-03-02T10:46:32;98964.84;;;10.91;100.00
35023;BME280;21214;44.912;8.204;2024-03-02T10:49:04;98965.50;;;10.93;100.00
35023;BME280;21214;44.912;8.204;2024-03-02T10:51:34;98969.81;;;10.94;100.00
35023;BME280;21214;44.912;8.204;2024-03-02T10:54:02;98960.56;;;10.98;100.00
35023;BME280;21214;44.912;8.204;2024-03-02T10:56:33;98963.91;;;11.00;100.00
35023;BME280;21214;44.912;8.204;2024-03-02T11:01:39;98965.50;;;10.93;100.00
35023;BME280;21214;44.912;8.204;2024-03-02T11:04:08;98964.53;;;10.94;100.00
35023;BME280;21214;44.912;8.204;2024-03-02T11:06:36;98968.16;;;10.93;100.00
35023;BME280;21214;44.912;8.204;2024-03-02T11:09:07;98963.03;;;10.92;100.00
35023;BME280;21214;44.912;8.204;2024-03-02T11:11:40;98967.13;;;10.86;100.00
35023;BME280;21214;44.912;8.204;2024-03-02T11:14:12;98959.69;;;10.82;100.00
35023;BME280;21214;44.912;8.204;2024-03-02T11:16:38;98966.09;;;10.79;100.00
35023;BME280;21214;44.912;8.204;2024-03-02T11:19:09;98965.28;;;10.79;100.00
35023;BME280;21214;44.912;8.204;2024-03-02T11:21:36;98962.47;;;10.80;100.00
35023;BME280;21214;44.912;8.204;2024-03-02T11:26:48;98948.50;;;10.88;100.00
35023;BME280;21214;44.912;8.204;2024-03-02T11:32:01;98937.84;;;11.14;100.00
35023;BME280;21214;44.912;8.204;2024-03-02T11:34:34;98926.69;;;11.36;100.00
35023;BME280;21214;44.912;8.204;2024-03-02T11:37:03;98924.38;;;11.57;100.00
35023;BME280;21214;44.912;8.204;2024-03-02T11:39:29;98923.09;;;11.77;100.00
35023;BME280;21214;44.912;8.204;2024-03-02T11:41:56;98919.78;;;11.92;100.00
35023;BME280;21214;44.912;8.204;2024-03-02T11:44:25;98915.31;;;12.00;100.00
35023;BME280;21214;44.912;8.204;2024-03-02T11:46:59;98912.66;;;12.08;100.00
35023;BME280;21214;44.912;8.204;2024-03-02T11:52:07;98903.88;;;12.16;100.00
35023;BME280;21214;44.912;8.204;2024-03-02T11:54:35;98900.06;;;12.26;100.00
35023;BME280;21214;44.912;8.204;2024-03-02T11:57:04;98896.22;;;12.37;100.00
35023;BME280;21214;44.912;8.204;2024-03-02T11:59:30;98890.06;;;12.45;100.00
35023;BME280;21214;44.912;8.204;2024-03-02T12:01:56;98894.84;;;12.49;100.00
35023;BME280;21214;44.912;8.204;2024-03-02T12:04:22;98895.50;;;12.59;100.00
35023;BME280;21214;44.912;8.204;2024-03-02T12:06:54;98890.00;;;12.69;100.00
35023;BME280;21214;44.912;8.204;2024-03-02T12:09:21;98889.44;;;12.82;100.00
35023;BME280;21214;44.912;8.204;2024-03-02T12:11:46;98897.38;;;12.82;100.00
35023;BME280;21214;44.912;8.204;2024-03-02T12:14:12;98884.91;;;12.90;100.00
35023;BME280;21214;44.912;8.204;2024-03-02T12:16:46;98882.38;;;12.97;100.00
35023;BME280;21214;44.912;8.204;2024-03-02T12:19:14;98887.19;;;13.01;100.00
35023;BME280;21214;44.912;8.204;2024-03-02T12:21:43;98890.31;;;13.05;100.00
35023;BME280;21214;44.912;8.204;2024-03-02T12:24:08;98890.31;;;13.05;100.00
35023;BME280;21214;44.912;8.204;2024-03-02T12:26:34;98887.00;;;13.03;100.00
35023;BME280;21214;44.912;8.204;2024-03-02T12:29:00;98893.47;;;13.00;100.00
35023;BME280;21214;44.912;8.204;2024-03-02T12:31:26;98885.28;;;12.87;100.00
35023;BME280;21214;44.912;8.204;2024-03-02T12:33:51;98874.69;;;12.87;100.00
35023;BME280;21214;44.912;8.204;2024-03-02T12:36:20;98870.03;;;12.89;100.00
35023;BME280;21214;44.912;8.204;2024-03-02T12:38:47;98867.41;;;12.89;100.00
35023;BME280;21214;44.912;8.204;2024-03-02T12:41:16;98862.09;;;12.89;100.00
35023;BME280;21214;44.912;8.204;2024-03-02T12:43:42;98857.81;;;12.88;100.00
35023;BME280;21214;44.912;8.204;2024-03-02T12:46:08;98864.88;;;12.96;100.00
35023;BME280;21214;44.912;8.204;2024-03-02T12:48:35;98856.94;;;12.96;100.00
35023;BME280;21214;44.912;8.204;2024-03-02T12:51:02;98852.41;;;13.04;100.00
35023;BME280;21214;44.912;8.204;2024-03-02T12:53:28;98851.69;;;13.10;100.00
35023;BME280;21214;44.912;8.204;2024-03-02T12:55:54;98855.94;;;13.20;100.00
35023;BME280;21214;44.912;8.204;2024-03-02T12:58:22;98839.25;;;13.19;100.00
35023;BME280;21214;44.912;8.204;2024-03-02T13:00:48;98837.72;;;13.25;100.00
35023;BME280;21214;44.912;8.204;2024-03-02T13:03:13;98830.19;;;13.36;100.00
35023;BME280;21214;44.912;8.204;2024-03-02T13:05:47;98827.28;;;13.46;100.00
35023;BME280;21214;44.912;8.204;2024-03-02T13:08:16;98831.81;;;13.60;100.00
35023;BME280;21214;44.912;8.204;2024-03-02T13:10:42;98822.81;;;13.61;100.00